Radium Hot Springs, Canada
Current Conditions -  °F | °C
As of 6:29 AM on Friday 28 Nov 2014 (Local Time) from CYXC Reporting Station
Light Rain Light Rain  
Wind Chill: 35°   Ceiling: 12000
Heat Index: 43°   Visibility: 15mi
Dew Point: 37°   Wind: 15mph
Humidity: 81%   Direction: 170°S
Pressure: 29.39"   Gusts: NA
Location:  50.62°N, 116.08°W
Report Text: CYXC 281329Z 17013KT 15SM -RA FEW020 SCT060 BKN120 OVC160 06/03 A2939 RMK SC1SC3AC2AC2 SLP966 DENSITY ALT 3300FT
Loading
Personal Weather Stations






























Interactive Weather Map New forecast layout! Learn more

10-Day Weather Forecast

Advertisements
Track Severe Weather on mobile